sensor_id;sensor_type;location;lat;lon;timestamp;pressure;altitude;pressure_sealevel;temperature
74915;BMP280;63475;45.140;-75.616;2023-03-24T00:00:35;99715.53;;;5.57
74915;BMP280;63475;45.140;-75.616;2023-03-24T00:01:36;99702.78;;;5.56
74915;BMP280;63475;45.140;-75.616;2023-03-24T00:02:38;99714.41;;;5.55
74915;BMP280;63475;45.140;-75.616;2023-03-24T00:03:41;99704.69;;;5.52
74915;BMP280;63475;45.140;-75.616;2023-03-24T00:04:48;99703.94;;;5.51
74915;BMP280;63475;45.140;-75.616;2023-03-24T00:05:57;99710.69;;;5.49
74915;BMP280;63475;45.140;-75.616;2023-03-24T00:07:01;99706.22;;;5.46
74915;BMP280;63475;45.140;-75.616;2023-03-24T00:08:03;99719.75;;;5.44
74915;BMP280;63475;45.140;-75.616;2023-03-24T00:09:05;99714.09;;;5.42
74915;BMP280;63475;45.140;-75.616;2023-03-24T00:10:10;99715.22;;;5.41
74915;BMP280;63475;45.140;-75.616;2023-03-24T00:11:11;99714.09;;;5.38
74915;BMP280;63475;45.140;-75.616;2023-03-24T00:12:13;99722.72;;;5.39
74915;BMP280;63475;45.140;-75.616;2023-03-24T00:13:18;99716.41;;;5.29
74915;BMP280;63475;45.140;-75.616;2023-03-24T00:14:19;99705.94;;;5.22
74915;BMP280;63475;45.140;-75.616;2023-03-24T00:15:20;99726.50;;;5.34
74915;BMP280;63475;45.140;-75.616;2023-03-24T00:16:23;99729.53;;;5.33
74915;BMP280;63475;45.140;-75.616;2023-03-24T00:17:25;99728.78;;;5.32
74915;BMP280;63475;45.140;-75.616;2023-03-24T00:18:28;99735.16;;;5.31
74915;BMP280;63475;45.140;-75.616;2023-03-24T00:19:30;99726.59;;;5.20
74915;BMP280;63475;45.140;-75.616;2023-03-24T00:20:33;99742.66;;;5.29
74915;BMP280;63475;45.140;-75.616;2023-03-24T00:21:34;99749.03;;;5.28
74915;BMP280;63475;45.140;-75.616;2023-03-24T00:22:36;99747.91;;;5.26
74915;BMP280;63475;45.140;-75.616;2023-03-24T00:23:41;99757.28;;;5.27
74915;BMP280;63475;45.140;-75.616;2023-03-24T00:24:43;99763.28;;;5.27
74915;BMP280;63475;45.140;-75.616;2023-03-24T00:25:45;99767.78;;;5.27
74915;BMP280;63475;45.140;-75.616;2023-03-24T00:26:49;99760.72;;;5.17
74915;BMP280;63475;45.140;-75.616;2023-03-24T00:27:51;99770.06;;;5.21
74915;BMP280;63475;45.140;-75.616;2023-03-24T00:28:53;99783.53;;;5.34
74915;BMP280;63475;45.140;-75.616;2023-03-24T00:29:55;99782.75;;;5.40
74915;BMP280;63475;45.140;-75.616;2023-03-24T00:30:59;99785.75;;;5.35
74915;BMP280;63475;45.140;-75.616;2023-03-24T00:32:01;99783.88;;;5.39
74915;BMP280;63475;45.140;-75.616;2023-03-24T00:33:03;99791.72;;;5.50
74915;BMP280;63475;45.140;-75.616;2023-03-24T00:34:04;99774.88;;;5.44
74915;BMP280;63475;45.140;-75.616;2023-03-24T00:35:09;99768.50;;;5.34
74915;BMP280;63475;45.140;-75.616;2023-03-24T00:36:10;99798.09;;;5.53
74915;BMP280;63475;45.140;-75.616;2023-03-24T00:37:11;99805.25;;;5.34
74915;BMP280;63475;45.140;-75.616;2023-03-24T00:38:12;99801.19;;;5.23
74915;BMP280;63475;45.140;-75.616;2023-03-24T00:39:14;99811.31;;;5.24
74915;BMP280;63475;45.140;-75.616;2023-03-24T00:40:19;99810.56;;;5.27
74915;BMP280;63475;45.140;-75.616;2023-03-24T00:41:21;99811.34;;;5.14
74915;BMP280;63475;45.140;-75.616;2023-03-24T00:42:24;99811.34;;;5.06
74915;BMP280;63475;45.140;-75.616;2023-03-24T00:43:25;99773.53;;;4.72
74915;BMP280;63475;45.140;-75.616;2023-03-24T00:44:26;99792.66;;;4.80
74915;BMP280;63475;45.140;-75.616;2023-03-24T00:45:28;99782.88;;;4.84
74915;BMP280;63475;45.140;-75.616;2023-03-24T00:46:33;99813.59;;;5.04
74915;BMP280;63475;45.140;-75.616;2023-03-24T00:47:37;99822.63;;;4.93
74915;BMP280;63475;45.140;-75.616;2023-03-24T00:48:38;99816.28;;;4.76
74915;BMP280;63475;45.140;-75.616;2023-03-24T00:49:41;99829.00;;;4.92
74915;BMP280;63475;45.140;-75.616;2023-03-24T00:50:47;99834.63;;;4.80
74915;BMP280;63475;45.140;-75.616;2023-03-24T00:51:48;99831.97;;;4.69
74915;BMP280;63475;45.140;-75.616;2023-03-24T00:52:52;99836.09;;;4.59
74915;BMP280;63475;45.140;-75.616;2023-03-24T00:53:53;99835.00;;;4.53
74915;BMP280;63475;45.140;-75.616;2023-03-24T00:54:57;99836.88;;;4.49
74915;BMP280;63475;45.140;-75.616;2023-03-24T00:55:58;99839.47;;;4.56
74915;BMP280;63475;45.140;-75.616;2023-03-24T00:56:59;99818.47;;;4.31
74915;BMP280;63475;45.140;-75.616;2023-03-24T00:58:03;99849.97;;;4.53
74915;BMP280;63475;45.140;-75.616;2023-03-24T00:59:04;99848.84;;;4.57
74915;BMP280;63475;45.140;-75.616;2023-03-24T01:00:07;99849.97;;;4.56
74915;BMP280;63475;45.140;-75.616;2023-03-24T01:01:19;99853.34;;;4.50
74915;BMP280;63475;45.140;-75.616;2023-03-24T01:02:23;99858.22;;;4.51
74915;BMP280;63475;45.140;-75.616;2023-03-24T01:03:25;99860.06;;;4.40
74915;BMP280;63475;45.140;-75.616;2023-03-24T01:04:29;99858.53;;;4.39
74915;BMP280;63475;45.140;-75.616;2023-03-24T01:05:30;99857.78;;;4.35
74915;BMP280;63475;45.140;-75.616;2023-03-24T01:06:31;99849.16;;;4.31
74915;BMP280;63475;45.140;-75.616;2023-03-24T01:07:36;99862.31;;;4.45
74915;BMP280;63475;45.140;-75.616;2023-03-24T01:08:41;99864.91;;;4.38
74915;BMP280;63475;45.140;-75.616;2023-03-24T01:09:44;99868.31;;;4.42
74915;BMP280;63475;45.140;-75.616;2023-03-24T01:10:51;99834.91;;;4.14
74915;BMP280;63475;45.140;-75.616;2023-03-24T01:11:53;99860.78;;;4.33
74915;BMP280;63475;45.140;-75.616;2023-03-24T01:12:56;99879.16;;;4.37
74915;BMP280;63475;45.140;-75.616;2023-03-24T01:13:57;99875.00;;;4.29
74915;BMP280;63475;45.140;-75.616;2023-03-24T01:15:00;99881.38;;;4.21
74915;BMP280;63475;45.140;-75.616;2023-03-24T01:16:02;99886.97;;;4.19
74915;BMP280;63475;45.140;-75.616;2023-03-24T01:17:03;99890.69;;;4.15
74915;BMP280;63475;45.140;-75.616;2023-03-24T01:18:07;99886.94;;;4.12
74915;BMP280;63475;45.140;-75.616;2023-03-24T01:19:09;99867.38;;;3.88
74915;BMP280;63475;45.140;-75.616;2023-03-24T01:20:14;99895.88;;;4.04
74915;BMP280;63475;45.140;-75.616;2023-03-24T01:21:15;99885.72;;;3.95
74915;BMP280;63475;45.140;-75.616;2023-03-24T01:22:18;99887.25;;;3.96
74915;BMP280;63475;45.140;-75.616;2023-03-24T01:23:22;99884.94;;;3.84
74915;BMP280;63475;45.140;-75.616;2023-03-24T01:24:23;99872.19;;;3.72
74915;BMP280;63475;45.140;-75.616;2023-03-24T01:25:25;99870.94;;;3.52
74915;BMP280;63475;45.140;-75.616;2023-03-24T01:26:28;99896.41;;;3.62
74915;BMP280;63475;45.140;-75.616;2023-03-24T01:27:30;99891.94;;;3.62
74915;BMP280;63475;45.140;-75.616;2023-03-24T01:28:31;99881.44;;;3.55
74915;BMP280;63475;45.140;-75.616;2023-03-24T01:29:32;99894.59;;;3.69
74915;BMP280;63475;45.140;-75.616;2023-03-24T01:30:34;99905.78;;;3.63
74915;BMP280;63475;45.140;-75.616;2023-03-24T01:31:35;99892.63;;;3.52
74915;BMP280;63475;45.140;-75.616;2023-03-24T01:32:36;99906.16;;;3.65
74915;BMP280;63475;45.140;-75.616;2023-03-24T01:33:37;99893.00;;;3.51
74915;BMP280;63475;45.140;-75.616;2023-03-24T01:34:38;99910.63;;;3.61
74915;BMP280;63475;45.140;-75.616;2023-03-24T01:35:40;99873.00;;;3.28
74915;BMP280;63475;45.140;-75.616;2023-03-24T01:36:41;99913.56;;;3.49
74915;BMP280;63475;45.140;-75.616;2023-03-24T01:37:42;99922.16;;;3.49
74915;BMP280;63475;45.140;-75.616;2023-03-24T01:38:43;99916.91;;;3.42
74915;BMP280;63475;45.140;-75.616;2023-03-24T01:39:44;99917.97;;;3.38
74915;BMP280;63475;45.140;-75.616;2023-03-24T01:40:46;99926.22;;;3.40
74915;BMP280;63475;45.140;-75.616;2023-03-24T01:41:47;99905.53;;;3.27
74915;BMP280;63475;45.140;-75.616;2023-03-24T01:42:49;99931.06;;;3.38
74915;BMP280;63475;45.140;-75.616;2023-03-24T01:43:50;99919.00;;;3.29
74915;BMP280;63475;45.140;-75.616;2023-03-24T01:44:58;99938.03;;;3.26
74915;BMP280;63475;45.140;-75.616;2023-03-24T01:47:17;99937.28;;;3.26
74915;BMP280;63475;45.140;-75.616;2023-03-24T01:49:30;99945.50;;;3.21
74915;BMP280;63475;45.140;-75.616;2023-03-24T01:50:32;99937.19;;;3.12
74915;BMP280;63475;45.140;-75.616;2023-03-24T01:51:37;99931.63;;;3.17
74915;BMP280;63475;45.140;-75.616;2023-03-24T01:52:40;99909.69;;;2.88
74915;BMP280;63475;45.140;-75.616;2023-03-24T01:53:51;99938.25;;;3.03
74915;BMP280;63475;45.140;-75.616;2023-03-24T01:54:57;99945.72;;;3.01
74915;BMP280;63475;45.140;-75.616;2023-03-24T01:55:59;99936.97;;;2.87
74915;BMP280;63475;45.140;-75.616;2023-03-24T01:57:09;99957.97;;;2.97
74915;BMP280;63475;45.140;-75.616;2023-03-24T01:58:11;99958.72;;;2.98
74915;BMP280;63475;45.140;-75.616;2023-03-24T01:59:17;99965.09;;;3.00
74915;BMP280;63475;45.140;-75.616;2023-03-24T02:00:21;99973.19;;;2.88
74915;BMP280;63475;45.140;-75.616;2023-03-24T02:01:22;99978.06;;;2.90
74915;BMP280;63475;45.140;-75.616;2023-03-24T02:02:29;99975.81;;;2.85
74915;BMP280;63475;45.140;-75.616;2023-03-24T02:03:34;99983.66;;;2.85
74915;BMP280;63475;45.140;-75.616;2023-03-24T02:04:43;99976.56;;;2.89
74915;BMP280;63475;45.140;-75.616;2023-03-24T02:05:47;99985.16;;;2.86
74915;BMP280;63475;45.140;-75.616;2023-03-24T02:06:50;99972.66;;;2.72
74915;BMP280;63475;45.140;-75.616;2023-03-24T02:09:07;99966.69;;;2.72
74915;BMP280;63475;45.140;-75.616;2023-03-24T02:10:13;99978.06;;;2.86
74915;BMP280;63475;45.140;-75.616;2023-03-24T02:11:15;99971.38;;;2.92
74915;BMP280;63475;45.140;-75.616;2023-03-24T02:12:16;99928.72;;;2.51
74915;BMP280;63475;45.140;-75.616;2023-03-24T02:13:17;99988.53;;;2.90
74915;BMP280;63475;45.140;-75.616;2023-03-24T02:14:18;99993.06;;;2.93
74915;BMP280;63475;45.140;-75.616;2023-03-24T02:15:19;99972.34;;;2.77
74915;BMP280;63475;45.140;-75.616;2023-03-24T02:17:10;99989.63;;;2.85
74915;BMP280;63475;45.140;-75.616;2023-03-24T02:18:08;99986.19;;;2.78
74915;BMP280;63475;45.140;-75.616;2023-03-24T02:24:39;100010.56;;;2.55
74915;BMP280;63475;45.140;-75.616;2023-03-24T02:26:11;100018.72;;;2.50
74915;BMP280;63475;45.140;-75.616;2023-03-24T02:27:31;100021.72;;;2.52
74915;BMP280;63475;45.140;-75.616;2023-03-24T02:28:51;100017.16;;;2.46
74915;BMP280;63475;45.140;-75.616;2023-03-24T02:39:42;100032.28;;;2.59
74915;BMP280;63475;45.140;-75.616;2023-03-24T02:42:23;100038.81;;;2.46
74915;BMP280;63475;45.140;-75.616;2023-03-24T02:50:35;100053.19;;;2.59
74915;BMP280;63475;45.140;-75.616;2023-03-24T02:52:05;100040.31;;;2.44
74915;BMP280;63475;45.140;-75.616;2023-03-24T02:53:13;100059.16;;;2.60
74915;BMP280;63475;45.140;-75.616;2023-03-24T02:55:32;100059.34;;;2.44
74915;BMP280;63475;45.140;-75.616;2023-03-24T02:56:48;100061.69;;;2.53
74915;BMP280;63475;45.140;-75.616;2023-03-24T02:58:16;100049.66;;;2.45
74915;BMP280;63475;45.140;-75.616;2023-03-24T02:59:24;100053.75;;;2.46
74915;BMP280;63475;45.140;-75.616;2023-03-24T03:00:31;100070.78;;;2.62
74915;BMP280;63475;45.140;-75.616;2023-03-24T03:03:02;100032.88;;;2.49
74915;BMP280;63475;45.140;-75.616;2023-03-24T03:04:27;100058.09;;;2.64
74915;BMP280;63475;45.140;-75.616;2023-03-24T03:05:41;100046.41;;;2.55
74915;BMP280;63475;45.140;-75.616;2023-03-24T03:06:48;100064.50;;;2.67
74915;BMP280;63475;45.140;-75.616;2023-03-24T03:07:54;100065.94;;;2.64
74915;BMP280;63475;45.140;-75.616;2023-03-24T03:09:00;100065.34;;;2.75
74915;BMP280;63475;45.140;-75.616;2023-03-24T03:10:23;100063.84;;;2.74
74915;BMP280;63475;45.140;-75.616;2023-03-24T03:11:25;100073.19;;;2.75
74915;BMP280;63475;45.140;-75.616;2023-03-24T03:12:29;100076.19;;;2.77
74915;BMP280;63475;45.140;-75.616;2023-03-24T03:13:42;100078.47;;;2.78
74915;BMP280;63475;45.140;-75.616;2023-03-24T03:14:48;100079.22;;;2.79
74915;BMP280;63475;45.140;-75.616;2023-03-24T03:15:54;100042.19;;;2.47
74915;BMP280;63475;45.140;-75.616;2023-03-24T03:17:00;100080.69;;;2.76
74915;BMP280;63475;45.140;-75.616;2023-03-24T03:18:35;100061.44;;;2.61
74915;BMP280;63475;45.140;-75.616;2023-03-24T03:19:45;100086.63;;;2.73
74915;BMP280;63475;45.140;-75.616;2023-03-24T03:20:51;100086.22;;;2.71
74915;BMP280;63475;45.140;-75.616;2023-03-24T03:21:53;100082.34;;;2.61
74915;BMP280;63475;45.140;-75.616;2023-03-24T03:23:10;100086.16;;;2.67
74915;BMP280;63475;45.140;-75.616;2023-03-24T03:24:21;100085.34;;;2.63
74915;BMP280;63475;45.140;-75.616;2023-03-24T03:25:30;100031.78;;;2.24
74915;BMP280;63475;45.140;-75.616;2023-03-24T03:26:33;100093.56;;;2.62
74915;BMP280;63475;45.140;-75.616;2023-03-24T03:27:35;100091.28;;;2.60
74915;BMP280;63475;45.140;-75.616;2023-03-24T03:28:41;100098.03;;;2.61
74915;BMP280;63475;45.140;-75.616;2023-03-24T03:29:57;100104.06;;;2.65
74915;BMP280;63475;45.140;-75.616;2023-03-24T03:31:02;100098.44;;;2.63
74915;BMP280;63475;45.140;-75.616;2023-03-24T03:32:10;100098.13;;;2.68
74915;BMP280;63475;45.140;-75.616;2023-03-24T03:33:19;100100.94;;;2.56
74915;BMP280;63475;45.140;-75.616;2023-03-24T03:35:57;100108.38;;;2.54
74915;BMP280;63475;45.140;-75.616;2023-03-24T03:38:34;100091.84;;;2.47
74915;BMP280;63475;45.140;-75.616;2023-03-24T03:40:09;100113.59;;;2.54
74915;BMP280;63475;45.140;-75.616;2023-03-24T03:41:12;100109.72;;;2.41
74915;BMP280;63475;45.140;-75.616;2023-03-24T03:42:16;100111.66;;;2.25
74915;BMP280;63475;45.140;-75.616;2023-03-24T03:43:17;100114.44;;;2.32
74915;BMP280;63475;45.140;-75.616;2023-03-24T03:44:18;100108.19;;;2.40
74915;BMP280;63475;45.140;-75.616;2023-03-24T03:45:19;100111.63;;;2.44
74915;BMP280;63475;45.140;-75.616;2023-03-24T03:46:21;100118.66;;;2.40
74915;BMP280;63475;45.140;-75.616;2023-03-24T03:47:22;100116.34;;;2.35
74915;BMP280;63475;45.140;-75.616;2023-03-24T03:48:23;100121.63;;;2.39
74915;BMP280;63475;45.140;-75.616;2023-03-24T03:49:26;100121.69;;;2.46
74915;BMP280;63475;45.140;-75.616;2023-03-24T03:50:27;100102.88;;;2.33
74915;BMP280;63475;45.140;-75.616;2023-03-24T03:51:29;100118.59;;;2.36
74915;BMP280;63475;45.140;-75.616;2023-03-24T03:52:30;100094.00;;;2.15
74915;BMP280;63475;45.140;-75.616;2023-03-24T03:53:41;100052.09;;;1.85
74915;BMP280;63475;45.140;-75.616;2023-03-24T03:54:44;100127.06;;;2.30
74915;BMP280;63475;45.140;-75.616;2023-03-24T03:55:45;100123.00;;;2.32
74915;BMP280;63475;45.140;-75.616;2023-03-24T03:56:46;100096.56;;;2.11
74915;BMP280;63475;45.140;-75.616;2023-03-24T03:57:49;100130.78;;;2.29
74915;BMP280;63475;45.140;-75.616;2023-03-24T03:58:50;100122.44;;;2.20
74915;BMP280;63475;45.140;-75.616;2023-03-24T03:59:52;100124.31;;;2.19
74915;BMP280;63475;45.140;-75.616;2023-03-24T04:00:54;100135.56;;;2.23
74915;BMP280;63475;45.140;-75.616;2023-03-24T04:01:55;100139.09;;;2.12
74915;BMP280;63475;45.140;-75.616;2023-03-24T04:04:47;100136.59;;;2.19
74915;BMP280;63475;45.140;-75.616;2023-03-24T04:06:13;100137.66;;;2.14
74915;BMP280;63475;45.140;-75.616;2023-03-24T04:07:32;100145.50;;;2.14
74915;BMP280;63475;45.140;-75.616;2023-03-24T04:08:56;100142.28;;;2.24
74915;BMP280;63475;45.140;-75.616;2023-03-24T04:10:20;100130.63;;;1.95
74915;BMP280;63475;45.140;-75.616;2023-03-24T04:12:07;100144.69;;;2.10
74915;BMP280;63475;45.140;-75.616;2023-03-24T04:13:15;100148.03;;;2.11
74915;BMP280;63475;45.140;-75.616;2023-03-24T04:15:54;100158.09;;;2.09
74915;BMP280;63475;45.140;-75.616;2023-03-24T04:17:32;100150.47;;;2.00
74915;BMP280;63475;45.140;-75.616;2023-03-24T04:18:49;100156.84;;;2.02
74915;BMP280;63475;45.140;-75.616;2023-03-24T04:20:00;100158.50;;;2.11
74915;BMP280;63475;45.140;-75.616;2023-03-24T04:21:34;100166.56;;;2.02
74915;BMP280;63475;45.140;-75.616;2023-03-24T04:24:19;100126.84;;;1.70
74915;BMP280;63475;45.140;-75.616;2023-03-24T04:26:04;100167.25;;;1.99
74915;BMP280;63475;45.140;-75.616;2023-03-24T04:27:17;100163.47;;;1.96
74915;BMP280;63475;45.140;-75.616;2023-03-24T04:30:15;100151.31;;;1.85
74915;BMP280;63475;45.140;-75.616;2023-03-24T04:33:56;100174.69;;;1.97
74915;BMP280;63475;45.140;-75.616;2023-03-24T04:35:06;100167.94;;;1.96
74915;BMP280;63475;45.140;-75.616;2023-03-24T04:36:36;100167.66;;;2.01
74915;BMP280;63475;45.140;-75.616;2023-03-24T04:37:42;100173.91;;;1.96
74915;BMP280;63475;45.140;-75.616;2023-03-24T04:38:49;100173.72;;;1.86
74915;BMP280;63475;45.140;-75.616;2023-03-24T04:39:53;100168.56;;;1.89
74915;BMP280;63475;45.140;-75.616;2023-03-24T04:40:58;100167.34;;;1.83
74915;BMP280;63475;45.140;-75.616;2023-03-24T04:42:03;100175.22;;;1.87
74915;BMP280;63475;45.140;-75.616;2023-03-24T04:43:07;100176.75;;;1.88
74915;BMP280;63475;45.140;-75.616;2023-03-24T04:44:10;100176.59;;;1.81
74915;BMP280;63475;45.140;-75.616;2023-03-24T04:45:13;100166.91;;;1.81
74915;BMP280;63475;45.140;-75.616;2023-03-24T04:46:15;100181.63;;;1.89
74915;BMP280;63475;45.140;-75.616;2023-03-24T04:47:21;100149.56;;;1.69
74915;BMP280;63475;45.140;-75.616;2023-03-24T04:48:24;100171.38;;;1.81
74915;BMP280;63475;45.140;-75.616;2023-03-24T04:49:25;100168.44;;;1.82
74915;BMP280;63475;45.140;-75.616;2023-03-24T04:50:40;100150.00;;;1.72
74915;BMP280;63475;45.140;-75.616;2023-03-24T04:51:43;100114.53;;;1.51
74915;BMP280;63475;45.140;-75.616;2023-03-24T04:52:44;100175.28;;;1.90
74915;BMP280;63475;45.140;-75.616;2023-03-24T04:53:45;100180.84;;;1.89
74915;BMP280;63475;45.140;-75.616;2023-03-24T04:54:46;100172.97;;;1.85
74915;BMP280;63475;45.140;-75.616;2023-03-24T04:56:51;100186.84;;;1.89
74915;BMP280;63475;45.140;-75.616;2023-03-24T04:57:52;100171.78;;;1.83
74915;BMP280;63475;45.140;-75.616;2023-03-24T04:58:53;100179.34;;;1.88
74915;BMP280;63475;45.140;-75.616;2023-03-24T04:59:54;100185.06;;;1.93
74915;BMP280;63475;45.140;-75.616;2023-03-24T05:00:55;100186.16;;;1.92
74915;BMP280;63475;45.140;-75.616;2023-03-24T05:01:59;100157.06;;;1.71
74915;BMP280;63475;45.140;-75.616;2023-03-24T05:03:00;100187.25;;;1.91
74915;BMP280;63475;45.140;-75.616;2023-03-24T05:04:02;100194.41;;;1.94
74915;BMP280;63475;45.140;-75.616;2023-03-24T05:05:04;100188.75;;;1.92
74915;BMP280;63475;45.140;-75.616;2023-03-24T05:06:06;100194.41;;;1.94
74915;BMP280;63475;45.140;-75.616;2023-03-24T05:07:07;100164.56;;;1.73
74915;BMP280;63475;45.140;-75.616;2023-03-24T05:08:08;100185.06;;;1.93
74915;BMP280;63475;45.140;-75.616;2023-03-24T05:09:11;100195.91;;;1.95
74915;BMP280;63475;45.140;-75.616;2023-03-24T05:10:12;100189.50;;;1.93
74915;BMP280;63475;45.140;-75.616;2023-03-24T05:11:13;100197.09;;;1.98
74915;BMP280;63475;45.140;-75.616;2023-03-24T05:12:14;100200.72;;;1.93
74915;BMP280;63475;45.140;-75.616;2023-03-24T05:13:15;100194.41;;;1.94
74915;BMP280;63475;45.140;-75.616;2023-03-24T05:14:17;100168.72;;;1.77
74915;BMP280;63475;45.140;-75.616;2023-03-24T05:15:18;100205.53;;;1.91
74915;BMP280;63475;45.140;-75.616;2023-03-24T05:16:19;100175.03;;;1.76
74915;BMP280;63475;45.140;-75.616;2023-03-24T05:17:20;100185.53;;;1.80
74915;BMP280;63475;45.140;-75.616;2023-03-24T05:18:22;100197.69;;;1.91
74915;BMP280;63475;45.140;-75.616;2023-03-24T05:19:23;100199.56;;;1.91
74915;BMP280;63475;45.140;-75.616;2023-03-24T05:20:24;100203.69;;;1.92
74915;BMP280;63475;45.140;-75.616;2023-03-24T05:21:25;100205.94;;;1.93
74915;BMP280;63475;45.140;-75.616;2023-03-24T05:22:27;100214.19;;;1.95
74915;BMP280;63475;45.140;-75.616;2023-03-24T05:23:28;100202.16;;;1.91
74915;BMP280;63475;45.140;-75.616;2023-03-24T05:24:29;100215.69;;;1.96
74915;BMP280;63475;45.140;-75.616;2023-03-24T05:25:31;100202.22;;;1.94
74915;BMP280;63475;45.140;-75.616;2023-03-24T05:26:33;100205.25;;;1.96
74915;BMP280;63475;45.140;-75.616;2023-03-24T05:27:35;100195.50;;;1.93
74915;BMP280;63475;45.140;-75.616;2023-03-24T05:28:36;100204.63;;;2.03
74915;BMP280;63475;45.140;-75.616;2023-03-24T05:29:37;100213.22;;;2.03
74915;BMP280;63475;45.140;-75.616;2023-03-24T05:30:38;100211.78;;;2.06
74915;BMP280;63475;45.140;-75.616;2023-03-24T05:31:40;100203.53;;;2.04
74915;BMP280;63475;45.140;-75.616;2023-03-24T05:32:41;100222.00;;;2.15
74915;BMP280;63475;45.140;-75.616;2023-03-24T05:33:42;100196.38;;;2.01
74915;BMP280;63475;45.140;-75.616;2023-03-24T05:34:43;100223.22;;;2.21
74915;BMP280;63475;45.140;-75.616;2023-03-24T05:35:44;100217.28;;;2.24
74915;BMP280;63475;45.140;-75.616;2023-03-24T05:36:45;100230.34;;;2.24
74915;BMP280;63475;45.140;-75.616;2023-03-24T05:37:47;100226.25;;;2.23
74915;BMP280;63475;45.140;-75.616;2023-03-24T05:38:48;100225.09;;;2.20
74915;BMP280;63475;45.140;-75.616;2023-03-24T05:39:49;100229.56;;;2.20
74915;BMP280;63475;45.140;-75.616;2023-03-24T05:40:50;100233.28;;;2.19
74915;BMP280;63475;45.140;-75.616;2023-03-24T05:41:51;100216.19;;;2.02
74915;BMP280;63475;45.140;-75.616;2023-03-24T05:42:52;100239.13;;;2.12
74915;BMP280;63475;45.140;-75.616;2023-03-24T05:43:53;100240.56;;;2.10
74915;BMP280;63475;45.140;-75.616;2023-03-24T05:44:54;100246.63;;;2.14
74915;BMP280;63475;45.140;-75.616;2023-03-24T05:45:55;100246.00;;;2.20
74915;BMP280;63475;45.140;-75.616;2023-03-24T05:46:56;100241.94;;;2.23
74915;BMP280;63475;45.140;-75.616;2023-03-24T05:47:57;100245.56;;;2.18
74915;BMP280;63475;45.140;-75.616;2023-03-24T05:48:58;100247.09;;;2.19
74915;BMP280;63475;45.140;-75.616;2023-03-24T05:49:59;100248.13;;;2.15
74915;BMP280;63475;45.140;-75.616;2023-03-24T05:51:00;100216.13;;;1.98
74915;BMP280;63475;45.140;-75.616;2023-03-24T05:52:01;100254.59;;;2.21
74915;BMP280;63475;45.140;-75.616;2023-03-24T05:53:02;100259.06;;;2.20
74915;BMP280;63475;45.140;-75.616;2023-03-24T05:54:03;100255.69;;;2.20
74915;BMP280;63475;45.140;-75.616;2023-03-24T05:55:05;100254.44;;;2.14
74915;BMP280;63475;45.140;-75.616;2023-03-24T05:56:07;100261.19;;;2.15
74915;BMP280;63475;45.140;-75.616;2023-03-24T05:57:15;100243.41;;;2.01
74915;BMP280;63475;45.140;-75.616;2023-03-24T05:58:16;100260.03;;;2.12
74915;BMP280;63475;45.140;-75.616;2023-03-24T05:59:17;100266.75;;;2.13
74915;BMP280;63475;45.140;-75.616;2023-03-24T06:00:20;100262.28;;;2.14
74915;BMP280;63475;45.140;-75.616;2023-03-24T06:01:22;100267.16;;;2.15
74915;BMP280;63475;45.140;-75.616;2023-03-24T06:02:24;100263.81;;;2.15
74915;BMP280;63475;45.140;-75.616;2023-03-24T06:03:26;100264.91;;;2.14
74915;BMP280;63475;45.140;-75.616;2023-03-24T06:04:33;100250.88;;;2.02
74915;BMP280;63475;45.140;-75.616;2023-03-24T06:05:34;100264.91;;;2.14
74915;BMP280;63475;45.140;-75.616;2023-03-24T06:06:36;100260.50;;;2.18
74915;BMP280;63475;45.140;-75.616;2023-03-24T06:07:39;100271.38;;;2.20
74915;BMP280;63475;45.140;-75.616;2023-03-24T06:08:42;100266.13;;;2.20
74915;BMP280;63475;45.140;-75.616;2023-03-24T06:09:44;100256.59;;;2.08
74915;BMP280;63475;45.140;-75.616;2023-03-24T06:10:46;100273.22;;;2.19
74915;BMP280;63475;45.140;-75.616;2023-03-24T06:11:48;100245.66;;;2.02
74915;BMP280;63475;45.140;-75.616;2023-03-24T06:12:49;100275.84;;;2.19
74915;BMP280;63475;45.140;-75.616;2023-03-24T06:13:50;100270.13;;;2.14
74915;BMP280;63475;45.140;-75.616;2023-03-24T06:14:52;100282.91;;;2.19
74915;BMP280;63475;45.140;-75.616;2023-03-24T06:15:53;100257.63;;;2.03
74915;BMP280;63475;45.140;-75.616;2023-03-24T06:16:58;100287.16;;;2.27
74915;BMP280;63475;45.140;-75.616;2023-03-24T06:17:59;100278.09;;;2.21
74915;BMP280;63475;45.140;-75.616;2023-03-24T06:19:00;100280.41;;;2.26
74915;BMP280;63475;45.140;-75.616;2023-03-24T06:20:04;100277.44;;;2.27
74915;BMP280;63475;45.140;-75.616;2023-03-24T06:21:13;100284.19;;;2.28
74915;BMP280;63475;45.140;-75.616;2023-03-24T06:22:19;100285.78;;;2.33
74915;BMP280;63475;45.140;-75.616;2023-03-24T06:23:21;100273.56;;;2.18
74915;BMP280;63475;45.140;-75.616;2023-03-24T06:24:23;100281.22;;;2.30
74915;BMP280;63475;45.140;-75.616;2023-03-24T06:25:25;100287.03;;;2.39
74915;BMP280;63475;45.140;-75.616;2023-03-24T06:26:28;100300.50;;;2.41
74915;BMP280;63475;45.140;-75.616;2023-03-24T06:27:30;100293.75;;;2.40
74915;BMP280;63475;45.140;-75.616;2023-03-24T06:28:31;100299.44;;;2.46
74915;BMP280;63475;45.140;-75.616;2023-03-24T06:29:34;100299.50;;;2.49
74915;BMP280;63475;45.140;-75.616;2023-03-24T06:30:36;100298.41;;;2.50
74915;BMP280;63475;45.140;-75.616;2023-03-24T06:31:38;100297.28;;;2.51
74915;BMP280;63475;45.140;-75.616;2023-03-24T06:32:39;100294.34;;;2.53
74915;BMP280;63475;45.140;-75.616;2023-03-24T06:33:41;100291.66;;;2.49
74915;BMP280;63475;45.140;-75.616;2023-03-24T06:34:42;100292.47;;;2.53
74915;BMP280;63475;45.140;-75.616;2023-03-24T06:35:44;100296.59;;;2.54
74915;BMP280;63475;45.140;-75.616;2023-03-24T06:36:45;100289.50;;;2.55
74915;BMP280;63475;45.140;-75.616;2023-03-24T06:37:46;100295.91;;;2.57
74915;BMP280;63475;45.140;-75.616;2023-03-24T06:38:47;100285.09;;;2.59
74915;BMP280;63475;45.140;-75.616;2023-03-24T06:39:49;100289.22;;;2.60
74915;BMP280;63475;45.140;-75.616;2023-03-24T06:40:50;100284.50;;;2.46
74915;BMP280;63475;45.140;-75.616;2023-03-24T06:41:51;100296.53;;;2.51
74915;BMP280;63475;45.140;-75.616;2023-03-24T06:42:52;100288.34;;;2.52
74915;BMP280;63475;45.140;-75.616;2023-03-24T06:43:53;100297.28;;;2.51
74915;BMP280;63475;45.140;-75.616;2023-03-24T06:44:54;100295.28;;;2.41
74915;BMP280;63475;45.140;-75.616;2023-03-24T06:45:55;100298.91;;;2.36
74915;BMP280;63475;45.140;-75.616;2023-03-24T06:46:56;100300.78;;;2.36
74915;BMP280;63475;45.140;-75.616;2023-03-24T06:47:57;100282.59;;;2.24